sensor_id;sensor_type;location;lat;lon;timestamp;temperature;humidity
29551;DHT22;16488;52.396;10.696;2023-06-05T00:01:43;11.80;99.90
29551;DHT22;16488;52.396;10.696;2023-06-05T00:04:09;11.90;99.90
29551;DHT22;16488;52.396;10.696;2023-06-05T00:06:35;11.80;99.90
29551;DHT22;16488;52.396;10.696;2023-06-05T00:09:03;11.80;99.90
29551;DHT22;16488;52.396;10.696;2023-06-05T00:11:28;11.80;99.90
29551;DHT22;16488;52.396;10.696;2023-06-05T00:13:54;11.80;99.90
29551;DHT22;16488;52.396;10.696;2023-06-05T00:16:20;11.80;99.90
29551;DHT22;16488;52.396;10.696;2023-06-05T00:18:45;11.70;99.90
29551;DHT22;16488;52.396;10.696;2023-06-05T00:21:14;11.80;99.90
29551;DHT22;16488;52.396;10.696;2023-06-05T00:23:41;11.70;99.90
29551;DHT22;16488;52.396;10.696;2023-06-05T00:26:07;11.80;99.90
29551;DHT22;16488;52.396;10.696;2023-06-05T00:28:32;11.80;99.90
29551;DHT22;16488;52.396;10.696;2023-06-05T00:30:59;11.80;99.90
29551;DHT22;16488;52.396;10.696;2023-06-05T00:33:24;11.70;99.90
29551;DHT22;16488;52.396;10.696;2023-06-05T00:35:50;11.70;99.90
29551;DHT22;16488;52.396;10.696;2023-06-05T00:38:16;11.70;99.90
29551;DHT22;16488;52.396;10.696;2023-06-05T00:40:41;11.70;99.90
29551;DHT22;16488;52.396;10.696;2023-06-05T00:43:07;11.80;99.90
29551;DHT22;16488;52.396;10.696;2023-06-05T00:45:33;11.80;99.90
29551;DHT22;16488;52.396;10.696;2023-06-05T00:47:58;12.00;99.90
29551;DHT22;16488;52.396;10.696;2023-06-05T00:50:24;11.90;99.90
29551;DHT22;16488;52.396;10.696;2023-06-05T00:52:51;11.90;99.90
29551;DHT22;16488;52.396;10.696;2023-06-05T00:55:17;11.90;99.90
29551;DHT22;16488;52.396;10.696;2023-06-05T00:57:44;11.90;99.90
29551;DHT22;16488;52.396;10.696;2023-06-05T01:00:10;11.90;99.90
29551;DHT22;16488;52.396;10.696;2023-06-05T01:02:40;11.80;99.90
29551;DHT22;16488;52.396;10.696;2023-06-05T01:05:06;11.60;99.90
29551;DHT22;16488;52.396;10.696;2023-06-05T01:07:33;11.50;99.90
29551;DHT22;16488;52.396;10.696;2023-06-05T01:10:00;11.40;99.90
29551;DHT22;16488;52.396;10.696;2023-06-05T01:12:33;11.30;99.90
29551;DHT22;16488;52.396;10.696;2023-06-05T01:15:02;10.90;99.90
29551;DHT22;16488;52.396;10.696;2023-06-05T01:17:28;10.50;99.90
29551;DHT22;16488;52.396;10.696;2023-06-05T01:19:54;10.50;99.90
29551;DHT22;16488;52.396;10.696;2023-06-05T01:22:20;10.60;99.90
29551;DHT22;16488;52.396;10.696;2023-06-05T01:24:45;10.50;99.90
29551;DHT22;16488;52.396;10.696;2023-06-05T01:27:22;10.60;99.90
29551;DHT22;16488;52.396;10.696;2023-06-05T01:30:15;10.60;99.90
29551;DHT22;16488;52.396;10.696;2023-06-05T01:35:19;10.60;99.90
29551;DHT22;16488;52.396;10.696;2023-06-05T01:37:47;10.40;99.90
29551;DHT22;16488;52.396;10.696;2023-06-05T01:40:19;10.20;99.90
29551;DHT22;16488;52.396;10.696;2023-06-05T01:42:46;10.00;99.90
29551;DHT22;16488;52.396;10.696;2023-06-05T01:45:14;9.90;99.90
29551;DHT22;16488;52.396;10.696;2023-06-05T01:47:41;10.10;99.90
29551;DHT22;16488;52.396;10.696;2023-06-05T01:50:08;10.20;99.90
29551;DHT22;16488;52.396;10.696;2023-06-05T01:52:35;10.30;99.90
29551;DHT22;16488;52.396;10.696;2023-06-05T01:55:01;10.20;99.90
29551;DHT22;16488;52.396;10.696;2023-06-05T01:57:28;10.00;99.90
29551;DHT22;16488;52.396;10.696;2023-06-05T01:59:54;9.70;99.90
29551;DHT22;16488;52.396;10.696;2023-06-05T02:02:20;9.50;99.90
29551;DHT22;16488;52.396;10.696;2023-06-05T02:04:49;9.30;99.90
29551;DHT22;16488;52.396;10.696;2023-06-05T02:07:15;9.10;99.90
29551;DHT22;16488;52.396;10.696;2023-06-05T02:09:41;9.00;99.90
29551;DHT22;16488;52.396;10.696;2023-06-05T02:12:07;8.90;99.90
29551;DHT22;16488;52.396;10.696;2023-06-05T02:14:33;8.80;99.90
29551;DHT22;16488;52.396;10.696;2023-06-05T02:17:02;8.80;99.90
29551;DHT22;16488;52.396;10.696;2023-06-05T02:19:35;8.80;99.90
29551;DHT22;16488;52.396;10.696;2023-06-05T02:22:00;8.70;99.90
29551;DHT22;16488;52.396;10.696;2023-06-05T02:24:26;8.70;99.90
29551;DHT22;16488;52.396;10.696;2023-06-05T02:26:52;8.80;99.90
29551;DHT22;16488;52.396;10.696;2023-06-05T02:29:18;9.00;99.90
29551;DHT22;16488;52.396;10.696;2023-06-05T02:31:43;9.20;99.90
29551;DHT22;16488;52.396;10.696;2023-06-05T02:34:09;9.40;99.90
29551;DHT22;16488;52.396;10.696;2023-06-05T02:36:35;9.50;99.90
29551;DHT22;16488;52.396;10.696;2023-06-05T02:39:01;9.50;99.90
29551;DHT22;16488;52.396;10.696;2023-06-05T02:41:28;9.60;99.90
29551;DHT22;16488;52.396;10.696;2023-06-05T02:43:54;9.50;99.90
29551;DHT22;16488;52.396;10.696;2023-06-05T02:46:25;9.30;99.90
29551;DHT22;16488;52.396;10.696;2023-06-05T02:48:51;9.00;99.90
29551;DHT22;16488;52.396;10.696;2023-06-05T02:51:17;8.70;99.90
29551;DHT22;16488;52.396;10.696;2023-06-05T02:53:43;8.60;99.90
29551;DHT22;16488;52.396;10.696;2023-06-05T02:56:08;8.50;99.90
29551;DHT22;16488;52.396;10.696;2023-06-05T02:58:34;8.40;99.90
29551;DHT22;16488;52.396;10.696;2023-06-05T03:01:00;8.50;99.90
29551;DHT22;16488;52.396;10.696;2023-06-05T03:03:31;8.70;99.90
29551;DHT22;16488;52.396;10.696;2023-06-05T03:05:58;8.90;99.90
29551;DHT22;16488;52.396;10.696;2023-06-05T03:08:36;9.00;99.90
29551;DHT22;16488;52.396;10.696;2023-06-05T03:11:03;9.10;99.90
29551;DHT22;16488;52.396;10.696;2023-06-05T03:13:29;9.20;99.90
29551;DHT22;16488;52.396;10.696;2023-06-05T03:15:56;9.30;99.90
29551;DHT22;16488;52.396;10.696;2023-06-05T03:18:29;9.30;99.90
29551;DHT22;16488;52.396;10.696;2023-06-05T03:20:55;9.00;99.90
29551;DHT22;16488;52.396;10.696;2023-06-05T03:23:27;8.80;99.90
29551;DHT22;16488;52.396;10.696;2023-06-05T03:25:54;8.60;99.90
29551;DHT22;16488;52.396;10.696;2023-06-05T03:28:21;8.50;99.90
29551;DHT22;16488;52.396;10.696;2023-06-05T03:30:47;8.40;99.90
29551;DHT22;16488;52.396;10.696;2023-06-05T03:33:14;8.30;99.90
29551;DHT22;16488;52.396;10.696;2023-06-05T03:35:40;8.30;99.90
29551;DHT22;16488;52.396;10.696;2023-06-05T03:38:06;8.20;99.90
29551;DHT22;16488;52.396;10.696;2023-06-05T03:40:32;8.20;99.90
29551;DHT22;16488;52.396;10.696;2023-06-05T03:42:57;8.20;99.90
29551;DHT22;16488;52.396;10.696;2023-06-05T03:45:23;8.50;99.90
29551;DHT22;16488;52.396;10.696;2023-06-05T03:47:52;8.80;99.90
29551;DHT22;16488;52.396;10.696;2023-06-05T03:50:17;8.90;99.90
29551;DHT22;16488;52.396;10.696;2023-06-05T03:52:43;8.90;99.90
29551;DHT22;16488;52.396;10.696;2023-06-05T03:55:09;8.80;99.90
29551;DHT22;16488;52.396;10.696;2023-06-05T03:57:36;8.60;99.90
29551;DHT22;16488;52.396;10.696;2023-06-05T04:00:05;8.50;99.90
29551;DHT22;16488;52.396;10.696;2023-06-05T04:02:35;8.50;99.90
29551;DHT22;16488;52.396;10.696;2023-06-05T04:05:02;8.60;99.90
29551;DHT22;16488;52.396;10.696;2023-06-05T04:07:29;8.70;99.90
29551;DHT22;16488;52.396;10.696;2023-06-05T04:09:55;8.70;99.90
29551;DHT22;16488;52.396;10.696;2023-06-05T04:12:21;8.60;99.90
29551;DHT22;16488;52.396;10.696;2023-06-05T04:14:47;8.70;99.90
29551;DHT22;16488;52.396;10.696;2023-06-05T04:17:12;8.70;99.90
29551;DHT22;16488;52.396;10.696;2023-06-05T04:19:39;8.70;99.90
29551;DHT22;16488;52.396;10.696;2023-06-05T04:22:05;8.70;99.90
29551;DHT22;16488;52.396;10.696;2023-06-05T04:24:31;8.70;99.90
29551;DHT22;16488;52.396;10.696;2023-06-05T04:26:57;8.80;99.90
29551;DHT22;16488;52.396;10.696;2023-06-05T04:29:24;8.80;99.90
29551;DHT22;16488;52.396;10.696;2023-06-05T04:31:50;8.90;99.90
29551;DHT22;16488;52.396;10.696;2023-06-05T04:34:16;9.00;99.90
29551;DHT22;16488;52.396;10.696;2023-06-05T04:36:45;9.10;99.90
29551;DHT22;16488;52.396;10.696;2023-06-05T04:39:12;9.10;99.90
29551;DHT22;16488;52.396;10.696;2023-06-05T04:41:41;9.30;99.90
29551;DHT22;16488;52.396;10.696;2023-06-05T04:44:15;9.40;99.90
29551;DHT22;16488;52.396;10.696;2023-06-05T04:46:45;9.50;99.90
29551;DHT22;16488;52.396;10.696;2023-06-05T04:49:14;9.60;99.90
29551;DHT22;16488;52.396;10.696;2023-06-05T04:51:42;9.80;99.90
29551;DHT22;16488;52.396;10.696;2023-06-05T04:54:09;9.90;99.90
29551;DHT22;16488;52.396;10.696;2023-06-05T04:56:35;10.10;99.90
29551;DHT22;16488;52.396;10.696;2023-06-05T04:59:02;10.20;99.90
29551;DHT22;16488;52.396;10.696;2023-06-05T05:01:28;10.50;99.90
29551;DHT22;16488;52.396;10.696;2023-06-05T05:03:54;10.60;99.90
29551;DHT22;16488;52.396;10.696;2023-06-05T05:06:20;10.80;99.90
29551;DHT22;16488;52.396;10.696;2023-06-05T05:08:46;11.00;99.90
29551;DHT22;16488;52.396;10.696;2023-06-05T05:11:16;11.10;99.90
29551;DHT22;16488;52.396;10.696;2023-06-05T05:13:42;11.30;99.90
29551;DHT22;16488;52.396;10.696;2023-06-05T05:16:08;11.50;99.90
29551;DHT22;16488;52.396;10.696;2023-06-05T05:18:34;11.70;99.90
29551;DHT22;16488;52.396;10.696;2023-06-05T05:21:00;11.80;99.90
29551;DHT22;16488;52.396;10.696;2023-06-05T05:23:27;11.90;99.90
29551;DHT22;16488;52.396;10.696;2023-06-05T05:25:53;12.10;99.90
29551;DHT22;16488;52.396;10.696;2023-06-05T05:28:19;12.30;99.90
29551;DHT22;16488;52.396;10.696;2023-06-05T05:30:45;12.40;99.90
29551;DHT22;16488;52.396;10.696;2023-06-05T05:33:10;12.50;99.90
29551;DHT22;16488;52.396;10.696;2023-06-05T05:35:36;12.70;99.90
29551;DHT22;16488;52.396;10.696;2023-06-05T05:38:01;12.70;99.90
29551;DHT22;16488;52.396;10.696;2023-06-05T05:40:27;12.80;99.90
29551;DHT22;16488;52.396;10.696;2023-06-05T05:42:52;12.90;99.90
29551;DHT22;16488;52.396;10.696;2023-06-05T05:45:18;13.00;99.90
29551;DHT22;16488;52.396;10.696;2023-06-05T05:47:44;13.00;99.90
29551;DHT22;16488;52.396;10.696;2023-06-05T05:50:09;13.20;99.90
29551;DHT22;16488;52.396;10.696;2023-06-05T05:52:35;13.30;99.90
29551;DHT22;16488;52.396;10.696;2023-06-05T05:55:01;13.30;99.90
29551;DHT22;16488;52.396;10.696;2023-06-05T05:57:28;13.40;99.90
29551;DHT22;16488;52.396;10.696;2023-06-05T05:59:55;13.50;99.90
29551;DHT22;16488;52.396;10.696;2023-06-05T06:02:20;13.60;99.90
29551;DHT22;16488;52.396;10.696;2023-06-05T06:04:46;13.60;99.90
29551;DHT22;16488;52.396;10.696;2023-06-05T06:07:13;13.70;99.90
29551;DHT22;16488;52.396;10.696;2023-06-05T06:09:38;13.80;99.90
29551;DHT22;16488;52.396;10.696;2023-06-05T06:12:04;13.90;99.90
29551;DHT22;16488;52.396;10.696;2023-06-05T06:14:33;13.90;99.90
29551;DHT22;16488;52.396;10.696;2023-06-05T06:16:59;14.10;99.90
29551;DHT22;16488;52.396;10.696;2023-06-05T06:19:25;14.10;99.90
29551;DHT22;16488;52.396;10.696;2023-06-05T06:21:53;14.20;99.90
29551;DHT22;16488;52.396;10.696;2023-06-05T06:24:19;14.30;99.90
29551;DHT22;16488;52.396;10.696;2023-06-05T06:26:48;14.30;99.90
29551;DHT22;16488;52.396;10.696;2023-06-05T06:29:18;14.40;99.90
29551;DHT22;16488;52.396;10.696;2023-06-05T06:31:44;14.50;99.90
29551;DHT22;16488;52.396;10.696;2023-06-05T06:34:10;14.60;99.90
29551;DHT22;16488;52.396;10.696;2023-06-05T06:36:39;14.70;99.90
29551;DHT22;16488;52.396;10.696;2023-06-05T06:39:09;14.80;99.90
29551;DHT22;16488;52.396;10.696;2023-06-05T06:41:36;14.90;99.90
29551;DHT22;16488;52.396;10.696;2023-06-05T06:44:02;15.00;99.90
29551;DHT22;16488;52.396;10.696;2023-06-05T06:46:28;15.10;99.90
29551;DHT22;16488;52.396;10.696;2023-06-05T06:48:53;15.20;99.90
29551;DHT22;16488;52.396;10.696;2023-06-05T06:51:19;15.30;99.90
29551;DHT22;16488;52.396;10.696;2023-06-05T06:53:47;15.40;99.90
29551;DHT22;16488;52.396;10.696;2023-06-05T06:56:13;15.60;99.90
29551;DHT22;16488;52.396;10.696;2023-06-05T06:58:41;15.70;99.90
29551;DHT22;16488;52.396;10.696;2023-06-05T07:01:07;15.80;99.90
29551;DHT22;16488;52.396;10.696;2023-06-05T07:03:33;16.00;99.90
29551;DHT22;16488;52.396;10.696;2023-06-05T07:05:58;16.10;99.90
29551;DHT22;16488;52.396;10.696;2023-06-05T07:08:24;16.10;99.90
29551;DHT22;16488;52.396;10.696;2023-06-05T07:10:51;16.20;99.90
29551;DHT22;16488;52.396;10.696;2023-06-05T07:13:19;16.30;99.90
29551;DHT22;16488;52.396;10.696;2023-06-05T07:15:47;16.40;99.90
29551;DHT22;16488;52.396;10.696;2023-06-05T07:18:12;16.40;99.90
29551;DHT22;16488;52.396;10.696;2023-06-05T07:20:38;16.50;99.90
29551;DHT22;16488;52.396;10.696;2023-06-05T07:23:04;16.60;99.90
29551;DHT22;16488;52.396;10.696;2023-06-05T07:25:29;16.70;99.90
29551;DHT22;16488;52.396;10.696;2023-06-05T07:27:55;16.80;99.90
29551;DHT22;16488;52.396;10.696;2023-06-05T07:30:21;16.90;99.90
29551;DHT22;16488;52.396;10.696;2023-06-05T07:32:47;17.10;99.90
29551;DHT22;16488;52.396;10.696;2023-06-05T07:35:12;17.20;99.90
29551;DHT22;16488;52.396;10.696;2023-06-05T07:37:39;17.20;99.90
29551;DHT22;16488;52.396;10.696;2023-06-05T07:40:05;17.30;99.90
29551;DHT22;16488;52.396;10.696;2023-06-05T07:42:31;17.50;99.90
29551;DHT22;16488;52.396;10.696;2023-06-05T07:44:57;17.70;99.90
29551;DHT22;16488;52.396;10.696;2023-06-05T07:47:23;17.70;99.90
29551;DHT22;16488;52.396;10.696;2023-06-05T07:49:58;17.80;99.90
29551;DHT22;16488;52.396;10.696;2023-06-05T07:52:25;17.90;99.00
29551;DHT22;16488;52.396;10.696;2023-06-05T07:54:50;18.00;98.90
29551;DHT22;16488;52.396;10.696;2023-06-05T07:57:16;18.00;98.00
29551;DHT22;16488;52.396;10.696;2023-06-05T07:59:42;18.10;97.30
29551;DHT22;16488;52.396;10.696;2023-06-05T08:02:08;18.20;97.00
29551;DHT22;16488;52.396;10.696;2023-06-05T08:04:34;18.20;97.40
29551;DHT22;16488;52.396;10.696;2023-06-05T08:07:01;18.30;97.70
29551;DHT22;16488;52.396;10.696;2023-06-05T08:09:26;18.50;96.80
29551;DHT22;16488;52.396;10.696;2023-06-05T08:11:52;18.60;96.80
29551;DHT22;16488;52.396;10.696;2023-06-05T08:14:18;18.70;95.90
29551;DHT22;16488;52.396;10.696;2023-06-05T08:16:43;18.80;95.90
29551;DHT22;16488;52.396;10.696;2023-06-05T08:19:09;18.90;96.50
29551;DHT22;16488;52.396;10.696;2023-06-05T08:21:36;19.10;95.70
29551;DHT22;16488;52.396;10.696;2023-06-05T08:24:05;19.30;94.90
29551;DHT22;16488;52.396;10.696;2023-06-05T08:26:31;19.40;93.70
29551;DHT22;16488;52.396;10.696;2023-06-05T08:28:57;19.50;92.90
29551;DHT22;16488;52.396;10.696;2023-06-05T08:31:22;19.60;93.00
29551;DHT22;16488;52.396;10.696;2023-06-05T08:33:49;19.80;92.10
29551;DHT22;16488;52.396;10.696;2023-06-05T08:36:15;19.90;91.70
29551;DHT22;16488;52.396;10.696;2023-06-05T08:38:41;19.90;90.70
29551;DHT22;16488;52.396;10.696;2023-06-05T08:41:07;19.90;90.40
29551;DHT22;16488;52.396;10.696;2023-06-05T08:43:36;20.00;89.50
29551;DHT22;16488;52.396;10.696;2023-06-05T08:46:05;20.00;89.60
29551;DHT22;16488;52.396;10.696;2023-06-05T08:48:32;20.00;89.70
29551;DHT22;16488;52.396;10.696;2023-06-05T08:51:00;20.10;88.70
29551;DHT22;16488;52.396;10.696;2023-06-05T08:53:31;20.20;85.50
29551;DHT22;16488;52.396;10.696;2023-06-05T08:56:01;20.30;82.20
29551;DHT22;16488;52.396;10.696;2023-06-05T08:58:27;20.30;80.70
29551;DHT22;16488;52.396;10.696;2023-06-05T09:00:53;20.40;78.70
29551;DHT22;16488;52.396;10.696;2023-06-05T09:03:21;20.50;77.00
29551;DHT22;16488;52.396;10.696;2023-06-05T09:05:47;20.50;76.90
29551;DHT22;16488;52.396;10.696;2023-06-05T09:08:16;20.60;77.50
29551;DHT22;16488;52.396;10.696;2023-06-05T09:10:42;20.70;74.70
29551;DHT22;16488;52.396;10.696;2023-06-05T09:13:08;20.70;74.30
29551;DHT22;16488;52.396;10.696;2023-06-05T09:15:35;20.80;73.10
29551;DHT22;16488;52.396;10.696;2023-06-05T09:20:31;20.90;71.50
29551;DHT22;16488;52.396;10.696;2023-06-05T09:23:01;21.00;69.80
29551;DHT22;16488;52.396;10.696;2023-06-05T09:25:26;21.10;71.10
29551;DHT22;16488;52.396;10.696;2023-06-05T09:28:07;21.10;71.40
29551;DHT22;16488;52.396;10.696;2023-06-05T09:30:32;21.20;71.00
29551;DHT22;16488;52.396;10.696;2023-06-05T09:33:18;21.30;71.20
29551;DHT22;16488;52.396;10.696;2023-06-05T09:35:44;21.40;72.20
29551;DHT22;16488;52.396;10.696;2023-06-05T09:38:26;21.50;72.50
29551;DHT22;16488;52.396;10.696;2023-06-05T09:41:21;21.70;68.80
29551;DHT22;16488;52.396;10.696;2023-06-05T09:43:47;21.80;68.50
29551;DHT22;16488;52.396;10.696;2023-06-05T09:46:15;22.00;64.10
29551;DHT22;16488;52.396;10.696;2023-06-05T09:48:42;22.10;61.00
29551;DHT22;16488;52.396;10.696;2023-06-05T09:53:46;22.20;60.50
29551;DHT22;16488;52.396;10.696;2023-06-05T09:56:14;22.10;59.20
29551;DHT22;16488;52.396;10.696;2023-06-05T09:59:00;22.20;60.30
29551;DHT22;16488;52.396;10.696;2023-06-05T10:01:27;22.20;60.00
29551;DHT22;16488;52.396;10.696;2023-06-05T10:03:57;22.30;63.60
29551;DHT22;16488;52.396;10.696;2023-06-05T10:06:26;22.50;60.30
29551;DHT22;16488;52.396;10.696;2023-06-05T10:08:54;22.60;58.60
29551;DHT22;16488;52.396;10.696;2023-06-05T10:11:22;22.70;58.40
29551;DHT22;16488;52.396;10.696;2023-06-05T10:13:49;22.80;58.40
29551;DHT22;16488;52.396;10.696;2023-06-05T10:16:16;22.80;56.80
29551;DHT22;16488;52.396;10.696;2023-06-05T10:18:46;22.80;56.80
29551;DHT22;16488;52.396;10.696;2023-06-05T10:21:17;22.90;54.80
29551;DHT22;16488;52.396;10.696;2023-06-05T10:23:45;22.90;55.30
29551;DHT22;16488;52.396;10.696;2023-06-05T10:27:03;23.00;55.00
29551;DHT22;16488;52.396;10.696;2023-06-05T10:32:04;23.00;54.90
29551;DHT22;16488;52.396;10.696;2023-06-05T10:34:52;23.20;58.70
29551;DHT22;16488;52.396;10.696;2023-06-05T10:37:39;23.20;54.40
29551;DHT22;16488;52.396;10.696;2023-06-05T10:40:07;23.10;54.50
29551;DHT22;16488;52.396;10.696;2023-06-05T10:42:34;23.20;54.50
29551;DHT22;16488;52.396;10.696;2023-06-05T10:45:01;23.10;56.50
29551;DHT22;16488;52.396;10.696;2023-06-05T10:52:42;23.10;55.70
29551;DHT22;16488;52.396;10.696;2023-06-05T10:55:09;23.10;55.70
29551;DHT22;16488;52.396;10.696;2023-06-05T11:00:30;23.30;55.50
29551;DHT22;16488;52.396;10.696;2023-06-05T11:03:16;23.30;55.00
29551;DHT22;16488;52.396;10.696;2023-06-05T11:06:12;23.30;53.90
29551;DHT22;16488;52.396;10.696;2023-06-05T11:08:38;23.40;55.70
29551;DHT22;16488;52.396;10.696;2023-06-05T11:11:05;23.40;56.00
29551;DHT22;16488;52.396;10.696;2023-06-05T11:13:54;23.50;54.20
29551;DHT22;16488;52.396;10.696;2023-06-05T11:16:28;23.50;53.90
29551;DHT22;16488;52.396;10.696;2023-06-05T11:22:03;23.60;54.10
29551;DHT22;16488;52.396;10.696;2023-06-05T11:24:30;23.60;53.80
29551;DHT22;16488;52.396;10.696;2023-06-05T11:26:55;23.60;53.00
29551;DHT22;16488;52.396;10.696;2023-06-05T11:29:21;23.70;53.30
29551;DHT22;16488;52.396;10.696;2023-06-05T11:31:51;23.80;52.10
29551;DHT22;16488;52.396;10.696;2023-06-05T11:34:17;23.80;52.50
29551;DHT22;16488;52.396;10.696;2023-06-05T11:36:44;23.90;51.70
29551;DHT22;16488;52.396;10.696;2023-06-05T11:39:15;24.00;52.00
29551;DHT22;16488;52.396;10.696;2023-06-05T11:41:47;23.90;52.10
29551;DHT22;16488;52.396;10.696;2023-06-05T11:44:14;24.10;51.70
29551;DHT22;16488;52.396;10.696;2023-06-05T11:46:42;24.00;52.50
29551;DHT22;16488;52.396;10.696;2023-06-05T11:49:28;24.00;49.90
29551;DHT22;16488;52.396;10.696;2023-06-05T11:52:20;23.80;49.70
29551;DHT22;16488;52.396;10.696;2023-06-05T11:54:47;23.90;53.30
29551;DHT22;16488;52.396;10.696;2023-06-05T11:57:52;23.90;51.60
29551;DHT22;16488;52.396;10.696;2023-06-05T12:00:37;24.00;50.60
29551;DHT22;16488;52.396;10.696;2023-06-05T12:03:03;24.00;50.30
29551;DHT22;16488;52.396;10.696;2023-06-05T12:05:29;24.00;49.20
29551;DHT22;16488;52.396;10.696;2023-06-05T12:07:55;24.00;50.00
29551;DHT22;16488;52.396;10.696;2023-06-05T12:10:33;23.90;50.70
29551;DHT22;16488;52.396;10.696;2023-06-05T12:13:00;24.00;51.20
29551;DHT22;16488;52.396;10.696;2023-06-05T12:15:26;24.00;50.60
29551;DHT22;16488;52.396;10.696;2023-06-05T12:17:56;24.10;49.80
29551;DHT22;16488;52.396;10.696;2023-06-05T12:20:23;24.10;49.10
29551;DHT22;16488;52.396;10.696;2023-06-05T12:22:49;24.10;49.80
29551;DHT22;16488;52.396;10.696;2023-06-05T12:25:18;24.30;50.40
29551;DHT22;16488;52.396;10.696;2023-06-05T12:27:44;24.40;48.40
29551;DHT22;16488;52.396;10.696;2023-06-05T12:30:13;24.30;49.20
29551;DHT22;16488;52.396;10.696;2023-06-05T12:33:03;24.50;49.10
29551;DHT22;16488;52.396;10.696;2023-06-05T12:35:29;24.60;50.30
29551;DHT22;16488;52.396;10.696;2023-06-05T12:37:59;24.60;48.20
29551;DHT22;16488;52.396;10.696;2023-06-05T12:40:25;24.50;48.70
29551;DHT22;16488;52.396;10.696;2023-06-05T12:42:51;24.50;48.70
29551;DHT22;16488;52.396;10.696;2023-06-05T12:45:16;24.50;48.10
29551;DHT22;16488;52.396;10.696;2023-06-05T12:47:42;24.70;51.70
29551;DHT22;16488;52.396;10.696;2023-06-05T12:50:10;24.60;48.10
29551;DHT22;16488;52.396;10.696;2023-06-05T12:52:39;24.60;47.90
29551;DHT22;16488;52.396;10.696;2023-06-05T12:55:06;24.60;51.00
29551;DHT22;16488;52.396;10.696;2023-06-05T12:57:32;24.80;48.80
29551;DHT22;16488;52.396;10.696;2023-06-05T13:00:00;24.70;47.70
29551;DHT22;16488;52.396;10.696;2023-06-05T13:02:29;24.80;50.40
29551;DHT22;16488;52.396;10.696;2023-06-05T13:04:57;24.70;47.70
29551;DHT22;16488;52.396;10.696;2023-06-05T13:07:22;24.70;47.50
29551;DHT22;16488;52.396;10.696;2023-06-05T13:09:48;24.70;49.20
29551;DHT22;16488;52.396;10.696;2023-06-05T13:12:17;24.70;48.80
29551;DHT22;16488;52.396;10.696;2023-06-05T13:14:42;24.90;49.20
29551;DHT22;16488;52.396;10.696;2023-06-05T13:17:08;24.60;47.50
29551;DHT22;16488;52.396;10.696;2023-06-05T13:19:34;24.60;48.10
29551;DHT22;16488;52.396;10.696;2023-06-05T13:21:59;24.70;48.30
29551;DHT22;16488;52.396;10.696;2023-06-05T13:24:25;24.60;46.80
29551;DHT22;16488;52.396;10.696;2023-06-05T13:26:51;24.60;49.10
29551;DHT22;16488;52.396;10.696;2023-06-05T13:29:16;24.60;46.90
29551;DHT22;16488;52.396;10.696;2023-06-05T13:31:42;24.80;48.90
29551;DHT22;16488;52.396;10.696;2023-06-05T13:34:07;24.90;49.30
29551;DHT22;16488;52.396;10.696;2023-06-05T13:36:33;25.10;48.40
29551;DHT22;16488;52.396;10.696;2023-06-05T13:38:58;25.10;47.20
29551;DHT22;16488;52.396;10.696;2023-06-05T13:41:24;25.20;49.40
29551;DHT22;16488;52.396;10.696;2023-06-05T13:43:51;25.40;47.60
29551;DHT22;16488;52.396;10.696;2023-06-05T13:46:16;25.30;46.20
29551;DHT22;16488;52.396;10.696;2023-06-05T13:48:42;25.30;46.70
29551;DHT22;16488;52.396;10.696;2023-06-05T13:51:08;25.40;46.60
29551;DHT22;16488;52.396;10.696;2023-06-05T13:53:33;25.30;46.10
29551;DHT22;16488;52.396;10.696;2023-06-05T13:56:03;24.90;46.60
29551;DHT22;16488;52.396;10.696;2023-06-05T13:58:29;24.70;49.00
29551;DHT22;16488;52.396;10.696;2023-06-05T14:00:55;24.70;49.10
29551;DHT22;16488;52.396;10.696;2023-06-05T14:03:21;24.80;48.80
29551;DHT22;16488;52.396;10.696;2023-06-05T14:05:47;24.90;48.30
29551;DHT22;16488;52.396;10.696;2023-06-05T14:08:13;24.90;48.80
29551;DHT22;16488;52.396;10.696;2023-06-05T14:10:38;24.90;48.20
29551;DHT22;16488;52.396;10.696;2023-06-05T14:13:04;24.70;47.60
29551;DHT22;16488;52.396;10.696;2023-06-05T14:15:31;24.70;45.70
29551;DHT22;16488;52.396;10.696;2023-06-05T14:18:01;24.60;45.40
29551;DHT22;16488;52.396;10.696;2023-06-05T14:20:27;24.60;45.20
29551;DHT22;16488;52.396;10.696;2023-06-05T14:22:52;24.70;46.10
29551;DHT22;16488;52.396;10.696;2023-06-05T14:25:18;24.80;45.00
29551;DHT22;16488;52.396;10.696;2023-06-05T14:27:44;24.90;46.90
29551;DHT22;16488;52.396;10.696;2023-06-05T14:30:10;25.00;46.50
29551;DHT22;16488;52.396;10.696;2023-06-05T14:32:36;25.20;45.30
29551;DHT22;16488;52.396;10.696;2023-06-05T14:35:02;25.20;46.60
29551;DHT22;16488;52.396;10.696;2023-06-05T14:37:27;25.40;46.10
29551;DHT22;16488;52.396;10.696;2023-06-05T14:39:53;25.50;45.20
29551;DHT22;16488;52.396;10.696;2023-06-05T14:42:19;25.40;47.50
29551;DHT22;16488;52.396;10.696;2023-06-05T14:44:44;25.40;45.80
29551;DHT22;16488;52.396;10.696;2023-06-05T14:47:10;25.50;46.40
29551;DHT22;16488;52.396;10.696;2023-06-05T14:49:36;25.50;45.10
29551;DHT22;16488;52.396;10.696;2023-06-05T14:52:01;25.40;45.90
29551;DHT22;16488;52.396;10.696;2023-06-05T14:54:27;25.50;45.60
29551;DHT22;16488;52.396;10.696;2023-06-05T14:56:52;25.60;45.90
29551;DHT22;16488;52.396;10.696;2023-06-05T14:59:18;25.60;46.30
29551;DHT22;16488;52.396;10.696;2023-06-05T15:01:44;25.60;45.70
29551;DHT22;16488;52.396;10.696;2023-06-05T15:07:35;25.40;45.30
29551;DHT22;16488;52.396;10.696;2023-06-05T15:10:02;25.50;45.90
29551;DHT22;16488;52.396;10.696;2023-06-05T15:12:28;25.50;45.60
29551;DHT22;16488;52.396;10.696;2023-06-05T15:14:54;25.60;44.70
29551;DHT22;16488;52.396;10.696;2023-06-05T15:17:19;25.60;45.00
29551;DHT22;16488;52.396;10.696;2023-06-05T15:19:45;25.60;46.00
29551;DHT22;16488;52.396;10.696;2023-06-05T15:22:11;25.60;45.00
29551;DHT22;16488;52.396;10.696;2023-06-05T15:24:36;25.50;45.70
29551;DHT22;16488;52.396;10.696;2023-06-05T15:27:02;25.40;45.50
29551;DHT22;16488;52.396;10.696;2023-06-05T15:29:28;25.40;45.50
29551;DHT22;16488;52.396;10.696;2023-06-05T15:31:54;25.30;45.10
29551;DHT22;16488;52.396;10.696;2023-06-05T15:34:19;25.00;46.40
29551;DHT22;16488;52.396;10.696;2023-06-05T15:36:45;24.90;48.70
29551;DHT22;16488;52.396;10.696;2023-06-05T15:39:11;24.80;49.40
29551;DHT22;16488;52.396;10.696;2023-06-05T15:41:38;24.80;46.10
29551;DHT22;16488;52.396;10.696;2023-06-05T15:44:04;24.70;45.80
29551;DHT22;16488;52.396;10.696;2023-06-05T15:46:30;24.70;47.70
29551;DHT22;16488;52.396;10.696;2023-06-05T15:48:55;25.00;47.70